createdAt,value
2019-03-05T00:01:34.753Z,1.39
2019-03-05T00:03:08.407Z,1.36
2019-03-05T00:04:42.798Z,1.35
2019-03-05T00:06:16.733Z,1.35
2019-03-05T00:07:50.379Z,1.32
2019-03-05T00:09:24.659Z,1.35
2019-03-05T00:10:58.336Z,1.36
2019-03-05T00:12:32.145Z,1.34
2019-03-05T00:14:05.785Z,1.34
2019-03-05T00:15:39.494Z,1.34
2019-03-05T00:17:13.200Z,1.33
2019-03-05T00:18:47.343Z,1.27
2019-03-05T00:20:21.507Z,1.24
2019-03-05T00:21:55.266Z,1.23
2019-03-05T00:23:53.300Z,1.14
2019-03-05T00:25:29.868Z,1.09
2019-03-05T00:27:03.525Z,1.08
2019-03-05T00:29:02.248Z,1.08
2019-03-05T00:30:51.145Z,1.08
2019-03-05T00:32:24.862Z,1.08
2019-03-05T00:34:18.354Z,1.11
2019-03-05T00:36:09.808Z,1.13
2019-03-05T00:37:46.907Z,1.16
2019-03-05T00:39:28.017Z,1.17
2019-03-05T00:41:04.590Z,1.18
2019-03-05T00:43:03.035Z,1.16
2019-03-05T00:45:09.290Z,1.18
2019-03-05T00:46:48.762Z,1.20
2019-03-05T00:48:41.776Z,1.19
2019-03-05T00:50:41.192Z,1.16
2019-03-05T00:52:20.866Z,1.13
2019-03-05T00:54:06.438Z,1.06
2019-03-05T00:55:52.508Z,1.02
2019-03-05T00:57:38.292Z,0.97
2019-03-05T00:59:20.730Z,0.92
2019-03-05T01:01:03.694Z,0.85
2019-03-05T01:02:59.159Z,0.81
2019-03-05T01:04:59.735Z,0.77
2019-03-05T01:06:33.635Z,0.76
2019-03-05T01:08:07.800Z,0.72
2019-03-05T01:09:42.205Z,0.69
2019-03-05T01:11:17.141Z,0.68
2019-03-05T01:12:51.070Z,0.66
2019-03-05T01:14:25.700Z,0.63
2019-03-05T01:15:59.832Z,0.59
2019-03-05T01:17:33.565Z,0.55
2019-03-05T01:19:07.399Z,0.49
2019-03-05T01:20:41.099Z,0.49
2019-03-05T01:22:14.852Z,0.48
2019-03-05T01:23:49.052Z,0.47
2019-03-05T01:25:32.014Z,0.46
2019-03-05T01:27:05.763Z,0.47
2019-03-05T01:28:39.399Z,0.48
2019-03-05T01:30:16.049Z,0.48
2019-03-05T01:31:52.311Z,0.48
2019-03-05T01:33:27.690Z,0.47
2019-03-05T01:35:05.894Z,0.48
2019-03-05T01:36:53.718Z,0.49
2019-03-05T01:38:28.683Z,0.51
2019-03-05T01:40:04.553Z,0.49
2019-03-05T01:41:38.205Z,0.51
2019-03-05T01:43:12.289Z,0.53
2019-03-05T01:44:46.054Z,0.56
2019-03-05T01:46:19.785Z,0.58
2019-03-05T01:47:54.127Z,0.59
2019-03-05T01:49:28.102Z,0.60
2019-03-05T01:51:01.800Z,0.59
2019-03-05T01:52:35.433Z,0.62
2019-03-05T01:54:09.993Z,0.63
2019-03-05T01:55:44.413Z,0.64
2019-03-05T01:57:18.143Z,0.63
2019-03-05T01:58:51.844Z,0.57
2019-03-05T02:00:27.023Z,0.51
2019-03-05T02:02:01.135Z,0.47
2019-03-05T02:03:34.814Z,0.44
2019-03-05T02:05:09.246Z,0.43
2019-03-05T02:06:42.886Z,0.42
2019-03-05T02:08:17.050Z,0.40
2019-03-05T02:09:50.783Z,0.34
2019-03-05T02:11:24.931Z,0.32
2019-03-05T02:12:58.569Z,0.29
2019-03-05T02:14:33.887Z,0.27
2019-03-05T02:16:07.518Z,0.27
2019-03-05T02:17:41.173Z,0.26
2019-03-05T02:19:44.886Z,0.27
2019-03-05T02:21:18.680Z,0.24
2019-03-05T02:22:58.457Z,0.21
2019-03-05T02:24:44.182Z,0.19
2019-03-05T02:26:42.362Z,0.15
2019-03-05T02:28:18.979Z,0.06
2019-03-05T02:29:55.609Z,0.00
2019-03-05T02:31:32.317Z,0.00
2019-03-05T02:33:18.248Z,0.01
2019-03-05T02:35:06.554Z,0.04
2019-03-05T02:37:18.083Z,0.03
2019-03-05T02:38:57.705Z,0.03
2019-03-05T02:40:43.547Z,0.03
2019-03-05T02:42:22.768Z,0.03
2019-03-05T02:44:02.460Z,0.00
2019-03-05T02:45:54.044Z,0.00
2019-03-05T02:47:48.009Z,0.03
2019-03-05T02:49:39.634Z,0.04
2019-03-05T02:51:24.946Z,0.04
2019-03-05T02:53:04.324Z,0.06
2019-03-05T02:55:01.796Z,0.06
2019-03-05T02:56:47.465Z,0.06
2019-03-05T02:58:19.876Z,0.07
2019-03-05T02:59:53.564Z,0.04
2019-03-05T03:01:34.770Z,-0.01
2019-03-05T03:03:10.092Z,-0.02
2019-03-05T03:04:45.354Z,-0.03
2019-03-05T03:06:20.690Z,-0.09
2019-03-05T03:07:56.258Z,-0.14
2019-03-05T03:09:32.896Z,-0.18
2019-03-05T03:11:06.618Z,-0.21
2019-03-05T03:12:41.279Z,-0.23
2019-03-05T03:14:15.590Z,-0.25
2019-03-05T03:15:49.289Z,-0.26
2019-03-05T03:17:22.950Z,-0.28
2019-03-05T03:18:56.634Z,-0.26
2019-03-05T03:20:30.748Z,-0.30
2019-03-05T03:22:04.469Z,-0.34
2019-03-05T03:23:38.182Z,-0.35
2019-03-05T03:25:14.825Z,-0.36
2019-03-05T03:26:48.912Z,-0.36
2019-03-05T03:28:22.748Z,-0.40
2019-03-05T03:29:56.450Z,-0.42
2019-03-05T03:31:30.172Z,-0.45
2019-03-05T03:33:05.652Z,-0.46
2019-03-05T03:34:39.316Z,-0.46
2019-03-05T03:36:12.938Z,-0.45
2019-03-05T03:37:48.141Z,-0.42
2019-03-05T03:39:24.127Z,-0.39
2019-03-05T03:40:57.449Z,-0.34
2019-03-05T03:42:31.167Z,-0.32
2019-03-05T03:44:05.512Z,-0.27
2019-03-05T03:45:39.610Z,-0.23
2019-03-05T03:47:13.261Z,-0.20
2019-03-05T03:48:48.089Z,-0.18
2019-03-05T03:50:21.794Z,-0.17
2019-03-05T03:51:56.852Z,-0.16
2019-03-05T03:53:30.490Z,-0.18
2019-03-05T03:55:04.757Z,-0.18
2019-03-05T03:56:38.405Z,-0.18
2019-03-05T03:58:12.768Z,-0.20
2019-03-05T03:59:48.182Z,-0.24
2019-03-05T04:01:21.832Z,-0.28
2019-03-05T04:02:55.511Z,-0.30
2019-03-05T04:04:29.504Z,-0.31
2019-03-05T04:06:03.199Z,-0.38
2019-03-05T04:07:36.910Z,-0.44
2019-03-05T04:09:13.045Z,-0.48
2019-03-05T04:10:47.262Z,-0.54
2019-03-05T04:12:20.935Z,-0.63
2019-03-05T04:13:54.667Z,-0.70
2019-03-05T04:15:29.880Z,-0.74
2019-03-05T04:17:03.981Z,-0.78
2019-03-05T04:18:38.753Z,-0.82
2019-03-05T04:20:16.361Z,-0.84
2019-03-05T04:21:50.075Z,-0.86
2019-03-05T04:23:28.737Z,-0.86
2019-03-05T04:25:02.451Z,-0.84
2019-03-05T04:26:36.172Z,-0.83
2019-03-05T04:28:10.611Z,-0.80
2019-03-05T04:29:44.504Z,-0.78
2019-03-05T04:31:18.522Z,-0.76
2019-03-05T04:32:52.179Z,-0.75
2019-03-05T04:34:25.884Z,-0.72
2019-03-05T04:35:59.914Z,-0.68
2019-03-05T04:37:33.684Z,-0.78
2019-03-05T04:39:10.271Z,-0.70
2019-03-05T04:40:44.019Z,-0.68
2019-03-05T04:42:18.089Z,-0.66
2019-03-05T04:43:51.853Z,-0.68
2019-03-05T04:45:41.401Z,-0.72
2019-03-05T04:47:15.574Z,-0.72
2019-03-05T04:48:51.421Z,-0.71
2019-03-05T04:50:29.672Z,-0.70
2019-03-05T04:52:11.228Z,-0.69
2019-03-05T04:53:44.849Z,-0.69
2019-03-05T04:55:19.002Z,-0.70
2019-03-05T04:56:52.644Z,-0.75
2019-03-05T04:58:26.271Z,-0.80
2019-03-05T05:00:00.039Z,-0.84
2019-03-05T05:01:33.998Z,-0.86
2019-03-05T05:03:07.626Z,-0.85
2019-03-05T05:04:41.355Z,-0.83
2019-03-05T05:06:16.602Z,-0.76
2019-03-05T05:07:50.715Z,-0.67
2019-03-05T05:09:24.425Z,-0.59
2019-03-05T05:10:58.086Z,-0.52
2019-03-05T05:12:31.849Z,-0.41
2019-03-05T05:14:06.001Z,-0.30
2019-03-05T05:15:39.762Z,-0.20
2019-03-05T05:17:13.536Z,-0.10
2019-03-05T05:18:47.267Z,0.02
2019-03-05T05:20:21.227Z,0.11
2019-03-05T05:21:56.371Z,0.15
2019-03-05T05:23:30.133Z,0.18
2019-03-05T05:25:04.826Z,0.23
2019-03-05T05:26:38.833Z,0.30
2019-03-05T05:28:12.528Z,0.57
2019-03-05T05:29:46.226Z,0.83
2019-03-05T05:31:19.984Z,1.07
2019-03-05T05:32:53.828Z,1.32
2019-03-05T05:34:27.516Z,1.58
2019-03-05T05:36:01.224Z,1.80
2019-03-05T05:37:34.989Z,2.09
2019-03-05T05:39:27.961Z,2.38
2019-03-05T05:41:01.659Z,2.66
2019-03-05T05:42:35.406Z,2.94
2019-03-05T05:44:09.109Z,3.27
2019-03-05T05:45:47.979Z,3.49
2019-03-05T05:47:21.677Z,3.64
2019-03-05T05:48:55.979Z,3.75
2019-03-05T05:50:29.688Z,3.85
2019-03-05T05:52:03.576Z,3.98
2019-03-05T05:53:38.813Z,4.07
2019-03-05T05:55:12.460Z,4.29
2019-03-05T05:56:46.150Z,4.52
2019-03-05T05:58:20.148Z,4.71
2019-03-05T05:59:54.368Z,4.70
2019-03-05T06:01:28.114Z,4.81
2019-03-05T06:03:01.815Z,5.10
2019-03-05T06:04:35.710Z,5.45
2019-03-05T06:06:10.033Z,5.74
2019-03-05T06:07:44.403Z,5.76
2019-03-05T06:09:18.706Z,5.72
2019-03-05T06:10:53.391Z,5.53
2019-03-05T06:12:27.159Z,5.47
2019-03-05T06:14:01.415Z,5.54
2019-03-05T06:15:35.718Z,5.47
2019-03-05T06:17:10.419Z,5.73
2019-03-05T06:18:44.805Z,6.00
2019-03-05T06:20:19.136Z,6.14
2019-03-05T06:21:53.508Z,6.41
2019-03-05T06:23:28.213Z,6.76
2019-03-05T06:25:02.546Z,7.02
2019-03-05T06:26:36.985Z,7.29
2019-03-05T06:28:11.319Z,7.67
2019-03-05T06:29:46.081Z,7.84
2019-03-05T06:31:20.326Z,8.19
2019-03-05T06:32:54.558Z,8.43
2019-03-05T06:34:28.870Z,8.84
2019-03-05T06:36:03.506Z,9.23
2019-03-05T06:37:37.813Z,9.27
2019-03-05T06:39:12.139Z,9.38
2019-03-05T06:40:46.396Z,9.52
2019-03-05T06:42:21.037Z,9.73
2019-03-05T06:43:55.299Z,10.11
2019-03-05T06:45:29.553Z,10.27
2019-03-05T06:47:03.863Z,10.61
2019-03-05T06:48:38.410Z,10.70
2019-03-05T06:50:15.414Z,10.93
2019-03-05T06:51:51.246Z,11.05
2019-03-05T06:53:27.331Z,11.19
2019-03-05T06:55:01.802Z,11.35
2019-03-05T06:56:36.155Z,11.42
2019-03-05T06:58:11.887Z,11.53
2019-03-05T06:59:46.427Z,11.50
2019-03-05T07:01:20.847Z,11.49
2019-03-05T07:02:55.167Z,11.62
2019-03-05T07:04:29.384Z,11.98
2019-03-05T07:06:40.158Z,11.85
2019-03-05T07:08:14.862Z,11.75
2019-03-05T07:09:59.572Z,11.64
2019-03-05T07:11:49.309Z,11.66
2019-03-05T07:13:25.577Z,11.84
2019-03-05T07:15:21.300Z,11.64
2019-03-05T07:17:02.801Z,11.08
2019-03-05T07:18:40.460Z,10.92
2019-03-05T07:20:32.977Z,11.33
2019-03-05T07:22:16.189Z,12.07
2019-03-05T07:24:02.422Z,12.79
2019-03-05T07:25:36.731Z,13.31
2019-03-05T07:27:10.975Z,13.53
2019-03-05T07:28:45.317Z,14.04
2019-03-05T07:30:19.662Z,14.61
2019-03-05T07:31:54.003Z,14.92
2019-03-05T07:33:28.256Z,14.87
2019-03-05T07:35:02.848Z,14.58
2019-03-05T07:36:37.082Z,14.33
2019-03-05T07:38:11.379Z,13.80
2019-03-05T07:39:45.960Z,13.04
2019-03-05T07:41:21.071Z,12.82
2019-03-05T07:42:55.304Z,12.73
2019-03-05T07:44:30.993Z,12.50
2019-03-05T07:46:05.301Z,12.13
2019-03-05T07:47:39.811Z,11.72
2019-03-05T07:49:14.097Z,11.52
2019-03-05T07:50:48.358Z,11.43
2019-03-05T07:52:22.709Z,11.17
2019-03-05T07:53:57.181Z,10.89
2019-03-05T07:55:31.781Z,10.56
2019-03-05T07:57:05.990Z,10.40
2019-03-05T07:58:40.337Z,10.64
2019-03-05T08:00:17.324Z,11.16
2019-03-05T08:01:51.526Z,11.39
2019-03-05T08:03:25.789Z,11.79
2019-03-05T08:05:00.102Z,12.32
2019-03-05T08:06:34.697Z,12.87
2019-03-05T08:08:45.323Z,13.59
2019-03-05T08:10:28.343Z,14.39
2019-03-05T08:12:22.356Z,14.97
2019-03-05T08:14:20.450Z,15.68
2019-03-05T08:16:15.606Z,16.37
2019-03-05T08:17:50.343Z,16.90
2019-03-05T08:19:24.625Z,17.40
2019-03-05T08:20:58.931Z,17.53
2019-03-05T08:22:33.329Z,17.12
2019-03-05T08:24:08.103Z,16.54
2019-03-05T08:25:42.447Z,16.83
2019-03-05T08:27:16.740Z,17.36
2019-03-05T08:28:51.051Z,17.71
2019-03-05T08:30:25.445Z,18.12
2019-03-05T08:31:59.681Z,18.23
2019-03-05T08:33:34.000Z,18.25
2019-03-05T08:35:10.298Z,18.12
2019-03-05T08:36:44.853Z,18.14
2019-03-05T08:38:19.114Z,18.30
2019-03-05T08:39:53.506Z,18.57
2019-03-05T08:41:27.864Z,18.93
2019-03-05T08:43:02.910Z,19.25
2019-03-05T08:44:49.700Z,19.36
2019-03-05T08:46:14.646Z,19.77
2019-03-05T08:47:49.000Z,20.07
2019-03-05T08:49:23.439Z,20.31
2019-03-05T08:50:57.721Z,20.56
2019-03-05T08:52:32.020Z,20.75
2019-03-05T08:54:07.829Z,20.82
2019-03-05T08:55:42.422Z,21.12
2019-03-05T08:57:16.686Z,21.26
2019-03-05T08:58:51.283Z,21.39
2019-03-05T09:00:25.521Z,21.83
2019-03-05T09:01:59.994Z,22.01
2019-03-05T09:03:34.221Z,22.20
2019-03-05T09:05:11.043Z,21.98
2019-03-05T09:06:45.435Z,22.12
2019-03-05T09:08:20.285Z,22.23
2019-03-05T09:09:54.608Z,22.45
2019-03-05T09:11:29.562Z,21.98
2019-03-05T09:13:04.765Z,22.32
2019-03-05T09:14:39.891Z,22.58
2019-03-05T09:16:14.117Z,22.76
2019-03-05T09:17:48.552Z,23.07
2019-03-05T09:19:22.826Z,23.51
2019-03-05T09:20:57.539Z,23.85
2019-03-05T09:22:31.838Z,23.55
2019-03-05T09:24:06.065Z,23.70
2019-03-05T09:25:40.411Z,23.94
2019-03-05T09:27:15.099Z,24.28
2019-03-05T09:28:49.331Z,24.45
2019-03-05T09:30:24.470Z,24.26
2019-03-05T09:31:58.672Z,24.19
2019-03-05T09:33:33.548Z,24.15
2019-03-05T09:35:10.731Z,24.38
2019-03-05T09:36:50.896Z,24.56
2019-03-05T09:38:20.883Z,24.77
2019-03-05T09:39:55.402Z,24.85
2019-03-05T09:41:29.718Z,24.61
2019-03-05T09:43:03.931Z,23.69
2019-03-05T09:44:38.240Z,22.98
2019-03-05T09:46:13.262Z,22.26
2019-03-05T09:47:47.544Z,21.91
2019-03-05T09:49:21.826Z,21.52
2019-03-05T09:50:56.070Z,21.23
2019-03-05T09:52:30.641Z,20.99
2019-03-05T09:54:05.524Z,20.89
2019-03-05T09:55:39.792Z,20.80
2019-03-05T09:57:14.176Z,20.86
2019-03-05T09:58:48.631Z,20.78
2019-03-05T10:00:24.930Z,20.76
2019-03-05T10:01:59.725Z,20.78
2019-03-05T10:03:35.587Z,20.74
2019-03-05T10:05:13.089Z,20.88
2019-03-05T10:06:47.404Z,20.95
2019-03-05T10:08:32.044Z,21.03
2019-03-05T10:09:57.634Z,20.99
2019-03-05T10:11:32.256Z,21.13
2019-03-05T10:13:06.794Z,21.22
2019-03-05T10:14:41.102Z,21.22
2019-03-05T10:16:16.963Z,21.05
2019-03-05T10:17:53.788Z,21.13
2019-03-05T10:19:28.113Z,21.28
2019-03-05T10:21:03.580Z,21.29
2019-03-05T10:22:37.746Z,21.38
2019-03-05T10:24:12.388Z,21.36
2019-03-05T10:25:46.640Z,21.37
2019-03-05T10:27:20.936Z,21.21
2019-03-05T10:28:55.218Z,21.13
2019-03-05T10:30:35.084Z,21.13
2019-03-05T10:32:10.224Z,21.14
2019-03-05T10:33:45.070Z,21.37
2019-03-05T10:35:20.755Z,21.37
2019-03-05T10:36:56.910Z,21.53
2019-03-05T10:38:32.456Z,21.76
2019-03-05T10:40:12.745Z,21.88
2019-03-05T10:41:46.976Z,21.72
2019-03-05T10:43:21.835Z,21.33
2019-03-05T10:44:56.120Z,21.11
2019-03-05T10:46:30.397Z,21.01
2019-03-05T10:48:04.796Z,20.87
2019-03-05T10:49:39.584Z,20.87
2019-03-05T10:51:13.809Z,20.81
2019-03-05T10:52:48.294Z,20.87
2019-03-05T10:54:22.600Z,20.92
2019-03-05T10:55:57.106Z,20.92
2019-03-05T10:57:31.434Z,20.86
2019-03-05T10:59:05.842Z,20.88
2019-03-05T11:00:45.521Z,20.76
2019-03-05T11:02:21.341Z,20.71
2019-03-05T11:03:55.983Z,20.79
2019-03-05T11:05:33.662Z,20.84
2019-03-05T11:07:07.863Z,20.82
2019-03-05T11:08:42.490Z,20.82
2019-03-05T11:10:18.257Z,20.75
2019-03-05T11:11:52.455Z,20.69
2019-03-05T11:13:26.722Z,20.49
2019-03-05T11:15:02.548Z,20.30
2019-03-05T11:16:36.844Z,20.18
2019-03-05T11:18:11.854Z,20.16
2019-03-05T11:19:46.134Z,20.19
2019-03-05T11:21:21.267Z,20.18
2019-03-05T11:22:55.485Z,20.17
2019-03-05T11:24:29.713Z,20.05
2019-03-05T11:26:04.083Z,19.94
2019-03-05T11:27:38.641Z,19.87
2019-03-05T11:29:12.870Z,19.88
2019-03-05T11:30:47.262Z,19.91
2019-03-05T11:32:21.591Z,19.96
2019-03-05T11:33:56.045Z,19.97
2019-03-05T11:35:33.222Z,19.95
2019-03-05T11:37:07.831Z,20.05
2019-03-05T11:38:42.142Z,20.10
2019-03-05T11:40:21.370Z,20.13
2019-03-05T11:41:57.219Z,20.13
2019-03-05T11:43:31.477Z,20.15
2019-03-05T11:45:11.633Z,20.05
2019-03-05T11:46:45.219Z,19.94
2019-03-05T11:48:19.650Z,19.87
2019-03-05T11:49:53.911Z,19.90
2019-03-05T11:51:28.189Z,19.90
2019-03-05T11:53:03.335Z,20.00
2019-03-05T11:54:37.634Z,20.14
2019-03-05T11:56:11.878Z,20.27
2019-03-05T11:57:46.365Z,20.34
2019-03-05T11:59:22.141Z,20.32
2019-03-05T12:01:08.248Z,20.40
2019-03-05T12:02:43.123Z,20.52
2019-03-05T12:04:17.429Z,20.55
2019-03-05T12:05:51.991Z,20.33
2019-03-05T12:07:26.342Z,20.14
2019-03-05T12:09:00.869Z,19.97
2019-03-05T12:10:35.173Z,19.91
2019-03-05T12:12:09.518Z,19.82
2019-03-05T12:13:43.763Z,19.80
2019-03-05T12:15:19.973Z,19.80
2019-03-05T12:16:54.286Z,19.87
2019-03-05T12:18:28.833Z,19.95
2019-03-05T12:20:03.103Z,20.02
2019-03-05T12:21:37.377Z,19.98
2019-03-05T12:23:13.798Z,20.02
2019-03-05T12:24:50.072Z,20.06
2019-03-05T12:26:24.399Z,20.05
2019-03-05T12:28:09.741Z,19.99
2019-03-05T12:29:36.269Z,20.02
2019-03-05T12:31:10.821Z,20.04
2019-03-05T12:32:45.029Z,20.07
2019-03-05T12:34:19.393Z,20.15
2019-03-05T12:35:53.707Z,20.14
2019-03-05T12:37:29.895Z,20.11
2019-03-05T12:39:05.374Z,20.17
2019-03-05T12:40:40.644Z,20.27
2019-03-05T12:42:14.857Z,20.21
2019-03-05T12:43:49.468Z,20.09
2019-03-05T12:45:25.176Z,19.95
2019-03-05T12:46:59.466Z,19.78
2019-03-05T12:48:39.877Z,19.71
2019-03-05T12:50:12.858Z,19.70
2019-03-05T12:51:48.655Z,19.74
2019-03-05T12:53:22.886Z,19.73
2019-03-05T12:54:57.220Z,19.73
2019-03-05T12:56:32.149Z,19.75
2019-03-05T12:58:07.155Z,19.80
2019-03-05T12:59:42.478Z,19.79
2019-03-05T13:01:18.275Z,19.81
2019-03-05T13:02:53.191Z,19.77
